sensor_id;sensor_type;location;lat;lon;timestamp;temperature;humidity
67186;HTU21D;54116;53.518;49.398;2024-01-25T00:01:53;-18.83;118.99
67186;HTU21D;54116;53.518;49.398;2024-01-25T00:04:19;-18.84;118.99
67186;HTU21D;54116;53.518;49.398;2024-01-25T00:06:45;-18.50;118.99
67186;HTU21D;54116;53.518;49.398;2024-01-25T00:09:12;-19.52;118.99
67186;HTU21D;54116;53.518;49.398;2024-01-25T00:11:38;-18.85;118.99
67186;HTU21D;54116;53.518;49.398;2024-01-25T00:14:04;-19.43;118.99
67186;HTU21D;54116;53.518;49.398;2024-01-25T00:16:30;-19.06;118.99
67186;HTU21D;54116;53.518;49.398;2024-01-25T00:18:56;-18.90;118.99
67186;HTU21D;54116;53.518;49.398;2024-01-25T00:21:22;-18.86;118.99
67186;HTU21D;54116;53.518;49.398;2024-01-25T00:23:48;-18.95;118.99
67186;HTU21D;54116;53.518;49.398;2024-01-25T00:26:14;-18.90;118.99
67186;HTU21D;54116;53.518;49.398;2024-01-25T00:28:40;-18.71;118.99
67186;HTU21D;54116;53.518;49.398;2024-01-25T00:31:06;-18.54;118.99
67186;HTU21D;54116;53.518;49.398;2024-01-25T00:33:32;-19.30;118.99
67186;HTU21D;54116;53.518;49.398;2024-01-25T00:35:59;-18.64;118.99
67186;HTU21D;54116;53.518;49.398;2024-01-25T00:38:25;-19.42;118.99
67186;HTU21D;54116;53.518;49.398;2024-01-25T00:40:52;-19.20;118.99
67186;HTU21D;54116;53.518;49.398;2024-01-25T00:43:20;-18.83;118.99
67186;HTU21D;54116;53.518;49.398;2024-01-25T00:45:46;-18.54;118.99
67186;HTU21D;54116;53.518;49.398;2024-01-25T00:48:13;-18.53;118.99
67186;HTU21D;54116;53.518;49.398;2024-01-25T00:50:39;-18.91;118.99
67186;HTU21D;54116;53.518;49.398;2024-01-25T00:53:05;-19.27;118.99
67186;HTU21D;54116;53.518;49.398;2024-01-25T00:55:32;-19.11;118.99
67186;HTU21D;54116;53.518;49.398;2024-01-25T00:57:58;-19.39;118.99
67186;HTU21D;54116;53.518;49.398;2024-01-25T01:00:25;-19.54;118.99
67186;HTU21D;54116;53.518;49.398;2024-01-25T01:02:53;-18.74;118.99
67186;HTU21D;54116;53.518;49.398;2024-01-25T01:05:19;-18.98;118.99
67186;HTU21D;54116;53.518;49.398;2024-01-25T01:07:46;-19.10;118.99
67186;HTU21D;54116;53.518;49.398;2024-01-25T01:10:12;-18.86;118.99
67186;HTU21D;54116;53.518;49.398;2024-01-25T01:12:39;-18.68;118.99
67186;HTU21D;54116;53.518;49.398;2024-01-25T01:15:06;-19.01;118.99
67186;HTU21D;54116;53.518;49.398;2024-01-25T01:17:32;-19.43;118.99
67186;HTU21D;54116;53.518;49.398;2024-01-25T01:19:58;-19.14;118.99
67186;HTU21D;54116;53.518;49.398;2024-01-25T01:22:24;-18.42;118.99
67186;HTU21D;54116;53.518;49.398;2024-01-25T01:24:50;-18.53;118.99
67186;HTU21D;54116;53.518;49.398;2024-01-25T01:27:16;-18.80;118.99
67186;HTU21D;54116;53.518;49.398;2024-01-25T01:29:43;-19.13;118.99
67186;HTU21D;54116;53.518;49.398;2024-01-25T01:32:09;-18.91;118.99
67186;HTU21D;54116;53.518;49.398;2024-01-25T01:34:35;-18.60;118.99
67186;HTU21D;54116;53.518;49.398;2024-01-25T01:37:01;-18.93;118.99
67186;HTU21D;54116;53.518;49.398;2024-01-25T01:39:27;-19.06;118.99
67186;HTU21D;54116;53.518;49.398;2024-01-25T01:41:53;-18.86;118.99
67186;HTU21D;54116;53.518;49.398;2024-01-25T01:44:20;-19.13;118.99
67186;HTU21D;54116;53.518;49.398;2024-01-25T01:46:46;-18.93;118.99
67186;HTU21D;54116;53.518;49.398;2024-01-25T01:49:14;-18.79;118.99
67186;HTU21D;54116;53.518;49.398;2024-01-25T01:51:41;-18.90;118.99
67186;HTU21D;54116;53.518;49.398;2024-01-25T01:54:09;-19.14;118.99
67186;HTU21D;54116;53.518;49.398;2024-01-25T01:56:36;-19.19;118.99
67186;HTU21D;54116;53.518;49.398;2024-01-25T01:59:04;-19.50;118.99
67186;HTU21D;54116;53.518;49.398;2024-01-25T02:01:31;-19.57;118.99
67186;HTU21D;54116;53.518;49.398;2024-01-25T02:03:57;-19.20;118.99
67186;HTU21D;54116;53.518;49.398;2024-01-25T02:06:23;-19.19;118.99
67186;HTU21D;54116;53.518;49.398;2024-01-25T02:08:50;-19.24;118.99
67186;HTU21D;54116;53.518;49.398;2024-01-25T02:11:17;-19.32;118.99
67186;HTU21D;54116;53.518;49.398;2024-01-25T02:13:43;-18.81;118.99
67186;HTU21D;54116;53.518;49.398;2024-01-25T02:16:10;-19.09;118.99
67186;HTU21D;54116;53.518;49.398;2024-01-25T02:18:36;-18.53;118.99
67186;HTU21D;54116;53.518;49.398;2024-01-25T02:21:02;-18.89;118.99
67186;HTU21D;54116;53.518;49.398;2024-01-25T02:23:28;-19.01;118.99
67186;HTU21D;54116;53.518;49.398;2024-01-25T02:25:54;-19.05;118.99
67186;HTU21D;54116;53.518;49.398;2024-01-25T02:28:20;-18.58;118.99
67186;HTU21D;54116;53.518;49.398;2024-01-25T02:30:46;-18.06;118.99
67186;HTU21D;54116;53.518;49.398;2024-01-25T02:33:12;-18.34;118.99
67186;HTU21D;54116;53.518;49.398;2024-01-25T02:35:38;-18.85;118.99
67186;HTU21D;54116;53.518;49.398;2024-01-25T02:38:04;-19.55;118.99
67186;HTU21D;54116;53.518;49.398;2024-01-25T02:40:30;-19.54;118.99
67186;HTU21D;54116;53.518;49.398;2024-01-25T02:42:57;-19.59;118.99
67186;HTU21D;54116;53.518;49.398;2024-01-25T02:45:23;-19.72;118.99
67186;HTU21D;54116;53.518;49.398;2024-01-25T02:47:49;-19.30;118.99
67186;HTU21D;54116;53.518;49.398;2024-01-25T02:50:16;-18.58;118.99
67186;HTU21D;54116;53.518;49.398;2024-01-25T02:52:42;-19.59;118.99
67186;HTU21D;54116;53.518;49.398;2024-01-25T02:55:08;-19.49;118.99
67186;HTU21D;54116;53.518;49.398;2024-01-25T02:57:34;-19.44;118.99
67186;HTU21D;54116;53.518;49.398;2024-01-25T03:00:00;-19.46;118.99
67186;HTU21D;54116;53.518;49.398;2024-01-25T03:02:26;-19.32;118.99
67186;HTU21D;54116;53.518;49.398;2024-01-25T03:04:53;-19.05;118.99
67186;HTU21D;54116;53.518;49.398;2024-01-25T03:07:19;-18.83;118.99
67186;HTU21D;54116;53.518;49.398;2024-01-25T03:09:45;-18.45;118.99
67186;HTU21D;54116;53.518;49.398;2024-01-25T03:12:11;-18.70;118.99
67186;HTU21D;54116;53.518;49.398;2024-01-25T03:14:37;-18.77;118.99
67186;HTU21D;54116;53.518;49.398;2024-01-25T03:17:03;-18.42;118.99
67186;HTU21D;54116;53.518;49.398;2024-01-25T03:19:29;-18.62;118.99
67186;HTU21D;54116;53.518;49.398;2024-01-25T03:21:55;-18.48;118.99
67186;HTU21D;54116;53.518;49.398;2024-01-25T03:24:21;-19.02;118.99
67186;HTU21D;54116;53.518;49.398;2024-01-25T03:26:48;-19.05;118.99
67186;HTU21D;54116;53.518;49.398;2024-01-25T03:29:14;-19.24;118.99
67186;HTU21D;54116;53.518;49.398;2024-01-25T03:31:40;-18.86;118.99
67186;HTU21D;54116;53.518;49.398;2024-01-25T03:34:06;-18.58;118.99
67186;HTU21D;54116;53.518;49.398;2024-01-25T03:36:33;-18.91;118.99
67186;HTU21D;54116;53.518;49.398;2024-01-25T03:38:59;-18.44;118.99
67186;HTU21D;54116;53.518;49.398;2024-01-25T03:41:25;-18.06;118.99
67186;HTU21D;54116;53.518;49.398;2024-01-25T03:43:52;-18.27;118.99
67186;HTU21D;54116;53.518;49.398;2024-01-25T03:46:18;-18.07;118.99
67186;HTU21D;54116;53.518;49.398;2024-01-25T03:48:44;-17.40;118.99
67186;HTU21D;54116;53.518;49.398;2024-01-25T03:51:10;-18.11;118.99
67186;HTU21D;54116;53.518;49.398;2024-01-25T03:53:36;-17.97;118.99
67186;HTU21D;54116;53.518;49.398;2024-01-25T03:56:02;-18.12;118.99
67186;HTU21D;54116;53.518;49.398;2024-01-25T03:58:28;-18.32;118.99
67186;HTU21D;54116;53.518;49.398;2024-01-25T04:00:54;-18.40;118.99
67186;HTU21D;54116;53.518;49.398;2024-01-25T04:03:21;-18.42;118.99
67186;HTU21D;54116;53.518;49.398;2024-01-25T04:05:47;-18.73;118.99
67186;HTU21D;54116;53.518;49.398;2024-01-25T04:08:13;-19.22;118.99
67186;HTU21D;54116;53.518;49.398;2024-01-25T04:10:39;-19.03;118.99
67186;HTU21D;54116;53.518;49.398;2024-01-25T04:13:05;-18.96;118.99
67186;HTU21D;54116;53.518;49.398;2024-01-25T04:15:32;-18.69;118.99
67186;HTU21D;54116;53.518;49.398;2024-01-25T04:17:58;-19.28;118.99
67186;HTU21D;54116;53.518;49.398;2024-01-25T04:20:24;-19.36;118.99
67186;HTU21D;54116;53.518;49.398;2024-01-25T04:22:50;-19.33;118.99
67186;HTU21D;54116;53.518;49.398;2024-01-25T04:25:17;-19.03;118.99
67186;HTU21D;54116;53.518;49.398;2024-01-25T04:27:43;-18.45;118.99
67186;HTU21D;54116;53.518;49.398;2024-01-25T04:30:09;-18.43;118.99
67186;HTU21D;54116;53.518;49.398;2024-01-25T04:32:36;-18.83;118.99
67186;HTU21D;54116;53.518;49.398;2024-01-25T04:35:02;-18.78;118.99
67186;HTU21D;54116;53.518;49.398;2024-01-25T04:37:28;-18.77;118.99
67186;HTU21D;54116;53.518;49.398;2024-01-25T04:39:54;-18.70;118.99
67186;HTU21D;54116;53.518;49.398;2024-01-25T04:42:21;-18.88;118.99
67186;HTU21D;54116;53.518;49.398;2024-01-25T04:44:47;-18.78;118.99
67186;HTU21D;54116;53.518;49.398;2024-01-25T04:47:13;-18.35;118.99
67186;HTU21D;54116;53.518;49.398;2024-01-25T04:49:40;-18.34;118.99
67186;HTU21D;54116;53.518;49.398;2024-01-25T04:52:06;-18.14;118.99
67186;HTU21D;54116;53.518;49.398;2024-01-25T04:54:32;-18.13;118.99
67186;HTU21D;54116;53.518;49.398;2024-01-25T04:56:58;-19.05;118.99
67186;HTU21D;54116;53.518;49.398;2024-01-25T04:59:24;-18.48;118.99
67186;HTU21D;54116;53.518;49.398;2024-01-25T05:01:51;-18.24;118.99
67186;HTU21D;54116;53.518;49.398;2024-01-25T05:04:19;-18.01;118.99
67186;HTU21D;54116;53.518;49.398;2024-01-25T05:06:45;-18.19;118.99
67186;HTU21D;54116;53.518;49.398;2024-01-25T05:09:11;-18.21;118.99
67186;HTU21D;54116;53.518;49.398;2024-01-25T05:11:39;-17.97;118.99
67186;HTU21D;54116;53.518;49.398;2024-01-25T05:14:06;-17.87;118.99
67186;HTU21D;54116;53.518;49.398;2024-01-25T05:16:32;-17.78;118.99
67186;HTU21D;54116;53.518;49.398;2024-01-25T05:18:58;-17.45;118.99
67186;HTU21D;54116;53.518;49.398;2024-01-25T05:21:25;-18.02;118.99
67186;HTU21D;54116;53.518;49.398;2024-01-25T05:23:51;-18.64;118.99
67186;HTU21D;54116;53.518;49.398;2024-01-25T05:26:17;-18.43;118.99
67186;HTU21D;54116;53.518;49.398;2024-01-25T05:28:43;-18.36;118.99
67186;HTU21D;54116;53.518;49.398;2024-01-25T05:31:09;-18.28;118.99
67186;HTU21D;54116;53.518;49.398;2024-01-25T05:33:41;-18.19;118.99
67186;HTU21D;54116;53.518;49.398;2024-01-25T05:36:08;-18.14;118.99
67186;HTU21D;54116;53.518;49.398;2024-01-25T05:38:34;-17.95;118.99
67186;HTU21D;54116;53.518;49.398;2024-01-25T05:41:00;-18.58;118.99
67186;HTU21D;54116;53.518;49.398;2024-01-25T05:43:27;-18.26;118.99
67186;HTU21D;54116;53.518;49.398;2024-01-25T05:45:53;-17.26;118.99
67186;HTU21D;54116;53.518;49.398;2024-01-25T05:48:19;-18.01;118.99
67186;HTU21D;54116;53.518;49.398;2024-01-25T05:50:45;-17.63;118.99
67186;HTU21D;54116;53.518;49.398;2024-01-25T05:53:11;-17.30;118.99
67186;HTU21D;54116;53.518;49.398;2024-01-25T05:55:37;-16.57;118.99
67186;HTU21D;54116;53.518;49.398;2024-01-25T05:58:03;-16.52;118.99
67186;HTU21D;54116;53.518;49.398;2024-01-25T06:00:29;-16.11;118.99
67186;HTU21D;54116;53.518;49.398;2024-01-25T06:02:55;-16.61;118.99
67186;HTU21D;54116;53.518;49.398;2024-01-25T06:05:22;-16.51;118.99
67186;HTU21D;54116;53.518;49.398;2024-01-25T06:07:48;-17.15;118.99
67186;HTU21D;54116;53.518;49.398;2024-01-25T06:10:15;-16.58;118.99
67186;HTU21D;54116;53.518;49.398;2024-01-25T06:12:41;-16.93;118.99
67186;HTU21D;54116;53.518;49.398;2024-01-25T06:15:08;-17.28;118.99
67186;HTU21D;54116;53.518;49.398;2024-01-25T06:17:34;-16.95;118.99
67186;HTU21D;54116;53.518;49.398;2024-01-25T06:20:00;-17.04;118.99
67186;HTU21D;54116;53.518;49.398;2024-01-25T06:22:26;-16.76;118.99
67186;HTU21D;54116;53.518;49.398;2024-01-25T06:24:52;-17.23;118.99
67186;HTU21D;54116;53.518;49.398;2024-01-25T06:27:19;-16.82;118.99
67186;HTU21D;54116;53.518;49.398;2024-01-25T06:29:45;-16.93;118.99
67186;HTU21D;54116;53.518;49.398;2024-01-25T06:32:11;-16.92;118.99
67186;HTU21D;54116;53.518;49.398;2024-01-25T06:34:37;-16.88;118.99
67186;HTU21D;54116;53.518;49.398;2024-01-25T06:37:03;-15.82;118.99
67186;HTU21D;54116;53.518;49.398;2024-01-25T06:39:29;-16.51;118.99
67186;HTU21D;54116;53.518;49.398;2024-01-25T06:41:56;-16.22;118.99
67186;HTU21D;54116;53.518;49.398;2024-01-25T06:44:22;-17.06;118.99
67186;HTU21D;54116;53.518;49.398;2024-01-25T06:46:48;-16.88;118.99
67186;HTU21D;54116;53.518;49.398;2024-01-25T06:49:14;-17.40;118.99
67186;HTU21D;54116;53.518;49.398;2024-01-25T06:51:40;-17.07;118.99
67186;HTU21D;54116;53.518;49.398;2024-01-25T06:54:06;-17.65;118.99
67186;HTU21D;54116;53.518;49.398;2024-01-25T06:56:32;-17.68;118.99
67186;HTU21D;54116;53.518;49.398;2024-01-25T06:59:00;-17.18;118.99
67186;HTU21D;54116;53.518;49.398;2024-01-25T07:01:26;-17.63;118.99
67186;HTU21D;54116;53.518;49.398;2024-01-25T07:03:53;-17.57;118.99
67186;HTU21D;54116;53.518;49.398;2024-01-25T07:06:19;-17.53;118.99
67186;HTU21D;54116;53.518;49.398;2024-01-25T07:08:46;-17.08;118.99
67186;HTU21D;54116;53.518;49.398;2024-01-25T07:11:12;-17.12;118.99
67186;HTU21D;54116;53.518;49.398;2024-01-25T07:13:41;-16.34;118.99
67186;HTU21D;54116;53.518;49.398;2024-01-25T07:16:07;-17.15;118.99
67186;HTU21D;54116;53.518;49.398;2024-01-25T07:18:33;-16.84;118.99
67186;HTU21D;54116;53.518;49.398;2024-01-25T07:20:59;-16.49;118.99
67186;HTU21D;54116;53.518;49.398;2024-01-25T07:23:25;-16.36;118.99
67186;HTU21D;54116;53.518;49.398;2024-01-25T07:25:52;-16.59;118.99
67186;HTU21D;54116;53.518;49.398;2024-01-25T07:28:19;-16.50;118.99
67186;HTU21D;54116;53.518;49.398;2024-01-25T07:30:47;-16.37;118.99
67186;HTU21D;54116;53.518;49.398;2024-01-25T07:33:13;-16.99;118.99
67186;HTU21D;54116;53.518;49.398;2024-01-25T07:35:40;-16.41;118.99
67186;HTU21D;54116;53.518;49.398;2024-01-25T07:38:11;-16.41;118.99
67186;HTU21D;54116;53.518;49.398;2024-01-25T07:40:39;-16.77;118.99
67186;HTU21D;54116;53.518;49.398;2024-01-25T07:43:06;-16.41;118.99
67186;HTU21D;54116;53.518;49.398;2024-01-25T07:45:32;-16.07;118.99
67186;HTU21D;54116;53.518;49.398;2024-01-25T07:47:59;-15.82;118.99
67186;HTU21D;54116;53.518;49.398;2024-01-25T07:50:25;-16.22;118.99
67186;HTU21D;54116;53.518;49.398;2024-01-25T07:52:51;-16.39;118.99
67186;HTU21D;54116;53.518;49.398;2024-01-25T07:55:17;-16.39;118.99
67186;HTU21D;54116;53.518;49.398;2024-01-25T07:57:43;-16.43;118.99
67186;HTU21D;54116;53.518;49.398;2024-01-25T08:00:10;-17.01;118.99
67186;HTU21D;54116;53.518;49.398;2024-01-25T08:02:36;-16.72;118.99
67186;HTU21D;54116;53.518;49.398;2024-01-25T08:05:04;-15.93;118.99
67186;HTU21D;54116;53.518;49.398;2024-01-25T08:07:30;-16.11;118.99
67186;HTU21D;54116;53.518;49.398;2024-01-25T08:09:56;-15.74;118.99
67186;HTU21D;54116;53.518;49.398;2024-01-25T08:12:26;-15.09;118.99
67186;HTU21D;54116;53.518;49.398;2024-01-25T08:14:52;-16.26;118.99
67186;HTU21D;54116;53.518;49.398;2024-01-25T08:17:19;-15.90;118.99
67186;HTU21D;54116;53.518;49.398;2024-01-25T08:19:45;-15.90;118.99
67186;HTU21D;54116;53.518;49.398;2024-01-25T08:22:12;-15.93;118.99
67186;HTU21D;54116;53.518;49.398;2024-01-25T08:24:39;-15.48;118.99
67186;HTU21D;54116;53.518;49.398;2024-01-25T08:27:05;-15.50;118.99
67186;HTU21D;54116;53.518;49.398;2024-01-25T08:29:33;-15.64;118.99
67186;HTU21D;54116;53.518;49.398;2024-01-25T08:31:59;-15.69;118.99
67186;HTU21D;54116;53.518;49.398;2024-01-25T08:34:25;-15.73;118.99
67186;HTU21D;54116;53.518;49.398;2024-01-25T08:36:51;-15.25;118.99
67186;HTU21D;54116;53.518;49.398;2024-01-25T08:39:17;-15.44;118.99
67186;HTU21D;54116;53.518;49.398;2024-01-25T08:41:44;-15.41;118.99
67186;HTU21D;54116;53.518;49.398;2024-01-25T08:44:11;-15.14;118.99
67186;HTU21D;54116;53.518;49.398;2024-01-25T08:46:37;-15.03;118.99
67186;HTU21D;54116;53.518;49.398;2024-01-25T08:49:04;-14.99;118.99
67186;HTU21D;54116;53.518;49.398;2024-01-25T08:51:34;-16.20;118.99
67186;HTU21D;54116;53.518;49.398;2024-01-25T08:54:00;-15.70;118.99
67186;HTU21D;54116;53.518;49.398;2024-01-25T08:56:27;-16.18;118.99
67186;HTU21D;54116;53.518;49.398;2024-01-25T08:58:53;-16.18;118.99
67186;HTU21D;54116;53.518;49.398;2024-01-25T09:01:19;-15.62;118.99
67186;HTU21D;54116;53.518;49.398;2024-01-25T09:03:45;-16.26;118.99
67186;HTU21D;54116;53.518;49.398;2024-01-25T09:06:11;-16.23;118.99
67186;HTU21D;54116;53.518;49.398;2024-01-25T09:08:38;-16.05;118.99
67186;HTU21D;54116;53.518;49.398;2024-01-25T09:11:04;-16.26;118.99
67186;HTU21D;54116;53.518;49.398;2024-01-25T09:13:30;-16.08;118.99
67186;HTU21D;54116;53.518;49.398;2024-01-25T09:15:58;-15.36;118.99
67186;HTU21D;54116;53.518;49.398;2024-01-25T09:18:24;-14.79;118.99
67186;HTU21D;54116;53.518;49.398;2024-01-25T09:20:50;-14.84;118.99
67186;HTU21D;54116;53.518;49.398;2024-01-25T09:23:17;-14.95;118.99
67186;HTU21D;54116;53.518;49.398;2024-01-25T09:25:45;-14.49;118.99
67186;HTU21D;54116;53.518;49.398;2024-01-25T09:28:11;-14.42;118.99
67186;HTU21D;54116;53.518;49.398;2024-01-25T09:30:38;-15.20;118.99
67186;HTU21D;54116;53.518;49.398;2024-01-25T09:33:08;-14.59;118.99
67186;HTU21D;54116;53.518;49.398;2024-01-25T09:35:34;-14.65;118.99
67186;HTU21D;54116;53.518;49.398;2024-01-25T09:38:00;-14.86;118.99
67186;HTU21D;54116;53.518;49.398;2024-01-25T09:40:27;-14.78;118.99
67186;HTU21D;54116;53.518;49.398;2024-01-25T09:42:54;-14.82;118.99
67186;HTU21D;54116;53.518;49.398;2024-01-25T09:45:21;-14.73;118.99
67186;HTU21D;54116;53.518;49.398;2024-01-25T09:47:47;-14.46;118.99
67186;HTU21D;54116;53.518;49.398;2024-01-25T09:50:13;-14.99;118.99
67186;HTU21D;54116;53.518;49.398;2024-01-25T09:52:43;-14.73;118.99
67186;HTU21D;54116;53.518;49.398;2024-01-25T09:55:12;-14.26;118.99
67186;HTU21D;54116;53.518;49.398;2024-01-25T09:57:45;-14.35;118.99
67186;HTU21D;54116;53.518;49.398;2024-01-25T10:00:13;-14.63;118.99
67186;HTU21D;54116;53.518;49.398;2024-01-25T10:02:39;-14.54;118.99
67186;HTU21D;54116;53.518;49.398;2024-01-25T10:05:06;-14.57;118.99
67186;HTU21D;54116;53.518;49.398;2024-01-25T10:10:03;-14.20;118.99
67186;HTU21D;54116;53.518;49.398;2024-01-25T10:12:31;-14.21;118.99
67186;HTU21D;54116;53.518;49.398;2024-01-25T10:14:58;-14.41;118.99
67186;HTU21D;54116;53.518;49.398;2024-01-25T10:17:25;-14.06;118.99
67186;HTU21D;54116;53.518;49.398;2024-01-25T10:19:51;-14.23;118.99
67186;HTU21D;54116;53.518;49.398;2024-01-25T10:22:18;-13.98;118.99
67186;HTU21D;54116;53.518;49.398;2024-01-25T10:24:44;-14.28;118.99
67186;HTU21D;54116;53.518;49.398;2024-01-25T10:27:11;-14.44;118.99
67186;HTU21D;54116;53.518;49.398;2024-01-25T10:29:38;-14.06;118.99
67186;HTU21D;54116;53.518;49.398;2024-01-25T10:32:04;-13.91;118.99
67186;HTU21D;54116;53.518;49.398;2024-01-25T10:34:32;-14.19;118.99
67186;HTU21D;54116;53.518;49.398;2024-01-25T10:36:59;-14.39;118.99
67186;HTU21D;54116;53.518;49.398;2024-01-25T10:39:25;-14.72;118.99
67186;HTU21D;54116;53.518;49.398;2024-01-25T10:41:51;-14.69;118.99
67186;HTU21D;54116;53.518;49.398;2024-01-25T10:44:19;-13.96;118.99
67186;HTU21D;54116;53.518;49.398;2024-01-25T10:46:49;-13.62;118.99
67186;HTU21D;54116;53.518;49.398;2024-01-25T10:49:16;-14.19;118.99
67186;HTU21D;54116;53.518;49.398;2024-01-25T10:51:44;-13.70;118.99
67186;HTU21D;54116;53.518;49.398;2024-01-25T10:54:12;-14.08;118.99
67186;HTU21D;54116;53.518;49.398;2024-01-25T10:56:41;-13.86;118.99
67186;HTU21D;54116;53.518;49.398;2024-01-25T10:59:08;-14.01;118.99
67186;HTU21D;54116;53.518;49.398;2024-01-25T11:01:34;-14.03;118.99
67186;HTU21D;54116;53.518;49.398;2024-01-25T11:04:01;-14.18;118.99
67186;HTU21D;54116;53.518;49.398;2024-01-25T11:06:28;-14.67;118.99
67186;HTU21D;54116;53.518;49.398;2024-01-25T11:09:04;-14.37;118.99
67186;HTU21D;54116;53.518;49.398;2024-01-25T11:11:35;-14.45;118.99
67186;HTU21D;54116;53.518;49.398;2024-01-25T11:14:02;-13.89;118.99
67186;HTU21D;54116;53.518;49.398;2024-01-25T11:16:30;-14.28;118.99
67186;HTU21D;54116;53.518;49.398;2024-01-25T11:18:58;-13.31;118.99
67186;HTU21D;54116;53.518;49.398;2024-01-25T11:24:23;-14.05;118.99
67186;HTU21D;54116;53.518;49.398;2024-01-25T11:26:54;-14.08;118.99
67186;HTU21D;54116;53.518;49.398;2024-01-25T11:29:21;-14.85;118.99
67186;HTU21D;54116;53.518;49.398;2024-01-25T11:31:50;-13.91;118.99
67186;HTU21D;54116;53.518;49.398;2024-01-25T11:34:17;-14.13;118.99
67186;HTU21D;54116;53.518;49.398;2024-01-25T11:36:47;-14.62;118.99
67186;HTU21D;54116;53.518;49.398;2024-01-25T11:39:15;-13.78;118.99
67186;HTU21D;54116;53.518;49.398;2024-01-25T11:41:44;-13.55;118.99
67186;HTU21D;54116;53.518;49.398;2024-01-25T11:44:12;-13.82;118.99
67186;HTU21D;54116;53.518;49.398;2024-01-25T11:46:42;-14.00;118.99
67186;HTU21D;54116;53.518;49.398;2024-01-25T11:49:08;-13.73;118.99
67186;HTU21D;54116;53.518;49.398;2024-01-25T11:51:34;-14.25;118.99
67186;HTU21D;54116;53.518;49.398;2024-01-25T11:54:00;-13.89;118.99
67186;HTU21D;54116;53.518;49.398;2024-01-25T11:56:29;-14.48;118.99
67186;HTU21D;54116;53.518;49.398;2024-01-25T11:58:57;-14.41;118.99
67186;HTU21D;54116;53.518;49.398;2024-01-25T12:01:27;-14.57;118.99
67186;HTU21D;54116;53.518;49.398;2024-01-25T12:03:54;-14.37;118.99
67186;HTU21D;54116;53.518;49.398;2024-01-25T12:06:20;-14.34;118.99
67186;HTU21D;54116;53.518;49.398;2024-01-25T12:08:46;-14.42;118.99
67186;HTU21D;54116;53.518;49.398;2024-01-25T12:11:14;-13.69;118.99
67186;HTU21D;54116;53.518;49.398;2024-01-25T12:13:43;-13.66;118.99
67186;HTU21D;54116;53.518;49.398;2024-01-25T12:16:11;-13.76;118.99
67186;HTU21D;54116;53.518;49.398;2024-01-25T12:18:38;-14.01;118.99
67186;HTU21D;54116;53.518;49.398;2024-01-25T12:21:05;-14.03;118.99
67186;HTU21D;54116;53.518;49.398;2024-01-25T12:23:38;-14.26;118.99
67186;HTU21D;54116;53.518;49.398;2024-01-25T12:26:09;-14.06;118.99
67186;HTU21D;54116;53.518;49.398;2024-01-25T12:28:37;-14.64;118.99
67186;HTU21D;54116;53.518;49.398;2024-01-25T12:31:04;-14.63;118.99
67186;HTU21D;54116;53.518;49.398;2024-01-25T12:33:31;-14.03;118.99
67186;HTU21D;54116;53.518;49.398;2024-01-25T12:35:59;-14.43;118.99
67186;HTU21D;54116;53.518;49.398;2024-01-25T12:38:26;-14.55;118.99
67186;HTU21D;54116;53.518;49.398;2024-01-25T12:40:53;-14.49;118.99
67186;HTU21D;54116;53.518;49.398;2024-01-25T12:43:20;-14.37;118.99
67186;HTU21D;54116;53.518;49.398;2024-01-25T12:45:49;-14.30;118.99
67186;HTU21D;54116;53.518;49.398;2024-01-25T12:48:16;-14.56;118.99
67186;HTU21D;54116;53.518;49.398;2024-01-25T12:50:43;-14.69;118.99
67186;HTU21D;54116;53.518;49.398;2024-01-25T12:53:12;-14.84;118.99
67186;HTU21D;54116;53.518;49.398;2024-01-25T12:55:38;-14.67;118.99
67186;HTU21D;54116;53.518;49.398;2024-01-25T12:58:04;-14.73;118.99
67186;HTU21D;54116;53.518;49.398;2024-01-25T13:00:31;-14.44;118.99
67186;HTU21D;54116;53.518;49.398;2024-01-25T13:02:57;-14.71;118.99
67186;HTU21D;54116;53.518;49.398;2024-01-25T13:05:23;-14.43;118.99
67186;HTU21D;54116;53.518;49.398;2024-01-25T13:07:50;-14.23;118.99
67186;HTU21D;54116;53.518;49.398;2024-01-25T13:10:16;-14.51;118.99
67186;HTU21D;54116;53.518;49.398;2024-01-25T13:12:42;-14.94;118.99
67186;HTU21D;54116;53.518;49.398;2024-01-25T13:15:09;-14.66;118.99
67186;HTU21D;54116;53.518;49.398;2024-01-25T13:17:36;-15.07;118.99
67186;HTU21D;54116;53.518;49.398;2024-01-25T13:20:05;-15.10;118.99
67186;HTU21D;54116;53.518;49.398;2024-01-25T13:22:33;-15.01;118.99
67186;HTU21D;54116;53.518;49.398;2024-01-25T13:25:00;-14.90;118.99
67186;HTU21D;54116;53.518;49.398;2024-01-25T13:27:27;-15.06;118.99
67186;HTU21D;54116;53.518;49.398;2024-01-25T13:29:53;-15.05;118.99
67186;HTU21D;54116;53.518;49.398;2024-01-25T13:32:22;-15.26;118.99
67186;HTU21D;54116;53.518;49.398;2024-01-25T13:34:48;-15.45;118.99
67186;HTU21D;54116;53.518;49.398;2024-01-25T13:37:14;-15.76;118.99
67186;HTU21D;54116;53.518;49.398;2024-01-25T13:39:40;-15.76;118.99
67186;HTU21D;54116;53.518;49.398;2024-01-25T13:42:06;-15.66;118.99
67186;HTU21D;54116;53.518;49.398;2024-01-25T13:44:35;-16.08;118.99
67186;HTU21D;54116;53.518;49.398;2024-01-25T13:47:01;-15.98;118.99
67186;HTU21D;54116;53.518;49.398;2024-01-25T13:49:27;-16.26;118.99
67186;HTU21D;54116;53.518;49.398;2024-01-25T13:51:53;-15.95;118.99
67186;HTU21D;54116;53.518;49.398;2024-01-25T13:54:21;-16.20;118.99
67186;HTU21D;54116;53.518;49.398;2024-01-25T13:56:47;-16.64;118.99
67186;HTU21D;54116;53.518;49.398;2024-01-25T13:59:13;-16.98;118.99
67186;HTU21D;54116;53.518;49.398;2024-01-25T14:01:39;-16.18;118.99
67186;HTU21D;54116;53.518;49.398;2024-01-25T14:04:05;-16.33;118.99
67186;HTU21D;54116;53.518;49.398;2024-01-25T14:06:31;-16.42;118.99
67186;HTU21D;54116;53.518;49.398;2024-01-25T14:08:57;-16.30;118.99
67186;HTU21D;54116;53.518;49.398;2024-01-25T14:11:24;-16.95;118.99
67186;HTU21D;54116;53.518;49.398;2024-01-25T14:13:52;-17.06;118.99
67186;HTU21D;54116;53.518;49.398;2024-01-25T14:16:18;-17.46;118.99
67186;HTU21D;54116;53.518;49.398;2024-01-25T14:18:44;-18.05;118.99
67186;HTU21D;54116;53.518;49.398;2024-01-25T14:21:10;-18.21;118.99
67186;HTU21D;54116;53.518;49.398;2024-01-25T14:23:36;-18.18;118.99
67186;HTU21D;54116;53.518;49.398;2024-01-25T14:26:02;-18.01;118.99
67186;HTU21D;54116;53.518;49.398;2024-01-25T14:28:30;-17.97;118.99
67186;HTU21D;54116;53.518;49.398;2024-01-25T14:30:56;-18.07;118.99
67186;HTU21D;54116;53.518;49.398;2024-01-25T14:33:22;-18.66;118.99
67186;HTU21D;54116;53.518;49.398;2024-01-25T14:35:48;-18.55;118.99
67186;HTU21D;54116;53.518;49.398;2024-01-25T14:38:14;-17.90;118.99